Surface/Precipitation History
12/10/2016 06:45  to  12/11/2016 06:45
Change End Date:
Date/Time
(MST)
Sf
Temp Chem Water Layer Surface Precipitation
Sfc Pvt Sub Frz Factor Pct Dpth DpthThk IcePct Cond Salin FI Type Intens Accum Rate
12/11/2016 06:40 Ice Warning 8.4F - - 31F 95 3% - - 97% 1 mhos 813 - None None - -
12/11/2016 06:40 Ice Warning 8.4F - - 31F 95 3% - - 97% 1 mhos 813 - None None - -
12/11/2016 06:30 Ice Warning 8.1F - - 31F 95 3% - - 97% 1 mhos 814 - None None - -
12/11/2016 06:25 Ice Warning 8.1F - - 31F 95 3% - - 97% 1 mhos 809 - None None - -
12/11/2016 06:20 Ice Warning 8.1F - - 31F 95 3% - - 97% 1 mhos 805 - None None - -
12/11/2016 06:10 Ice Warning 8.1F - - 31F 95 3% - - 97% 1 mhos 822 - None None - -
12/11/2016 06:10 Ice Warning 8.1F - - 31F 95 3% - - 97% 1 mhos 822 - None None - -
12/11/2016 06:00 Ice Warning 8.2F - - 31F 95 3% - - 97% 1 mhos 820 - None None - -
12/11/2016 05:55 Ice Warning 8.4F - - 31F 95 3% - - 97% 1 mhos 805 - None None - -
12/11/2016 05:49 Ice Warning 8.4F - - 31F 95 3% - - 97% 1 mhos 795 - None None - -
12/11/2016 05:40 Ice Warning 8.4F - - 31F 95 3% - - 97% 1 mhos 795 - None None - -
12/11/2016 05:39 Ice Warning 8.4F - - 31F 95 3% - - 97% 1 mhos 791 - None None - -
12/11/2016 05:29 Ice Warning 8.2F - - 31F 95 3% - - 97% 1 mhos 792 - None None - -
12/11/2016 05:25 Ice Warning 8.4F - - 31F 95 3% - - 97% 1 mhos 789 - None None - -
12/11/2016 05:19 Ice Warning 8.4F - - 31F 95 3% - - 97% 1 mhos 790 - None None - -
Date/Time
(MST)
Sf
Temp Chem Water Layer Surface Precipitation
Sfc Pvt Sub Frz Factor Pct Dpth DpthThk IcePct Cond Salin FI Type Intens Accum Rate
12/11/2016 05:10 Ice Warning 8.8F - - 31F 95 3% - - 97% 1 mhos 773 - None None - -
12/11/2016 05:09 Ice Warning 9.0F - - 31F 95 3% - - 97% 1 mhos 758 - None None - -
12/11/2016 04:59 Ice Warning 9.3F - - 31F 95 2% - - 97% 1 mhos 743 - None None - -
12/11/2016 04:55 Ice Warning 9.3F - - 31F 95 2% - - 97% 1 mhos 747 - None None - -
12/11/2016 04:49 Ice Warning 9.3F - - 31F 95 2% - - 97% 1 mhos 745 - None None - -
12/11/2016 04:40 Ice Warning 9.3F - - 31F 95 3% - - 97% 1 mhos 761 - None None - -
12/11/2016 04:39 Ice Warning 9.3F - - 31F 95 3% - - 97% 1 mhos 768 - None None - -
12/11/2016 04:29 Ice Warning 9.3F - - 31F 95 3% - - 97% 1 mhos 757 - None None - -
12/11/2016 04:25 Ice Warning 9.5F - - 31F 95 3% - - 97% 1 mhos 754 - None None - -
12/11/2016 04:19 Ice Warning 9.5F - - 31F 95 3% - - 97% 1 mhos 754 - None None - -
12/11/2016 04:10 Ice Warning 9.7F - - 31F 95 2% - - 97% 1 mhos 750 - None None - -
12/11/2016 04:09 Ice Warning 9.5F - - 31F 95 3% - - 97% 1 mhos 761 - None None - -
12/11/2016 03:59 Ice Warning 9.9F - - 31F 95 2% - - 97% 1 mhos 746 - None None - -
12/11/2016 03:55 Ice Warning 9.7F - - 31F 95 3% - - 97% 1 mhos 755 - None None - -
12/11/2016 03:49 Ice Warning 9.7F - - 31F 95 3% - - 97% 1 mhos 755 - None None - -
Date/Time
(MST)
Sf
Temp Chem Water Layer Surface Precipitation
Sfc Pvt Sub Frz Factor Pct Dpth DpthThk IcePct Cond Salin FI Type Intens Accum Rate
12/11/2016 03:40 Ice Warning 9.9F - - 31F 95 3% - - 97% 1 mhos 753 - None None - -
12/11/2016 03:39 Ice Warning 10.0F - - 31F 95 2% - - 97% 1 mhos 743 - None None - -
12/11/2016 03:29 Ice Warning 10.2F - - 31F 95 2% - - 97% 1 mhos 738 - None None - -
12/11/2016 03:25 Ice Warning 10.2F - - 31F 95 2% - - 97% 1 mhos 738 - None None - -
12/11/2016 03:19 Ice Warning 10.2F - - 31F 95 2% - - 97% 1 mhos 733 - None None - -
12/11/2016 03:10 Ice Warning 10.6F - - 31F 95 2% - - 97% 1 mhos 720 - None None - -
12/11/2016 03:09 Ice Warning 10.8F - - 31F 95 2% - - 97% 1 mhos 713 - None None - -
12/11/2016 02:59 Ice Warning 10.9F - - 31F 95 2% - - 97% 1 mhos 722 - None None - -
12/11/2016 02:55 Ice Warning 10.9F - - 31F 95 2% - - 97% 1 mhos 722 - None None - -
12/11/2016 02:49 Ice Warning 11.3F - - 31F 95 2% - - 97% 1 mhos 702 - None None - -
12/11/2016 02:40 Ice Warning 11.5F - - 31F 95 2% - - 97% 1 mhos 704 - None None - -
12/11/2016 02:39 Ice Warning 11.5F - - 31F 95 2% - - 97% 1 mhos 695 - None None - -
12/11/2016 02:28 Ice Warning 12.0F - - 31F 95 2% - - 97% 1 mhos 675 - None None - -
12/11/2016 02:25 Ice Warning 11.8F - - 31F 95 2% - - 97% 1 mhos 685 - None None - -
12/11/2016 02:18 Ice Warning 12.4F - - 31F 95 2% - - 97% 1 mhos 676 - None None - -
Date/Time
(MST)
Sf
Temp Chem Water Layer Surface Precipitation
Sfc Pvt Sub Frz Factor Pct Dpth DpthThk IcePct Cond Salin FI Type Intens Accum Rate
12/11/2016 02:10 Ice Warning 12.2F - - 31F 95 2% - - 97% 1 mhos 678 - None None - -
12/11/2016 02:08 Ice Warning 12.2F - - 31F 95 2% - - 97% 1 mhos 678 - None None - -
12/11/2016 01:58 Ice Warning 11.1F - - 31F 95 2% - - 97% 1 mhos 705 - None None - -
12/11/2016 01:55 Ice Warning 10.9F - - 31F 95 2% - - 97% 1 mhos 708 - None None - -
12/11/2016 01:48 Ice Warning 10.8F - - 31F 95 2% - - 97% 1 mhos 713 - None None - -
12/11/2016 01:40 Ice Warning 10.8F - - 31F 95 2% - - 97% 1 mhos 709 - None None - -
12/11/2016 01:38 Ice Warning 10.6F - - 31F 95 2% - - 97% 1 mhos 716 - None None - -
12/11/2016 01:28 Ice Warning 10.9F - - 31F 95 2% - - 97% 1 mhos 700 - None None - -
12/11/2016 01:25 Ice Warning 10.9F - - 31F 95 2% - - 97% 1 mhos 698 - None None - -
12/11/2016 01:18 Ice Warning 11.1F - - 31F 95 2% - - 97% 1 mhos 700 - None None - -
12/11/2016 01:10 Ice Warning 11.1F - - 31F 95 2% - - 97% 1 mhos 697 - None None - -
12/11/2016 01:08 Ice Warning 11.3F - - 31F 95 2% - - 97% 1 mhos 678 - None None - -
12/11/2016 00:58 Ice Warning 11.1F - - 31F 95 2% - - 97% 1 mhos 685 - None None - -
12/11/2016 00:55 Ice Warning 11.3F - - 31F 95 2% - - 97% 1 mhos 678 - None None - -
12/11/2016 00:48 Ice Warning 11.5F - - 31F 95 2% - - 97% 1 mhos 671 - None None - -
Date/Time
(MST)
Sf
Temp Chem Water Layer Surface Precipitation
Sfc Pvt Sub Frz Factor Pct Dpth DpthThk IcePct Cond Salin FI Type Intens Accum Rate
12/11/2016 00:40 Ice Warning 11.5F - - 31F 95 2% - - 97% 1 mhos 667 - None None - -
12/11/2016 00:38 Ice Warning 11.5F - - 31F 95 2% - - 97% 1 mhos 667 - None None - -
12/11/2016 00:28 Ice Warning 11.7F - - 31F 95 2% - - 97% 1 mhos 656 - None None - -
12/11/2016 00:25 Ice Warning 11.8F - - 31F 95 2% - - 97% 1 mhos 653 - None None - -
12/11/2016 00:18 Ice Warning 11.8F - - 31F 95 2% - - 97% 1 mhos 656 - None None - -
12/11/2016 00:10 Ice Warning 11.8F - - 31F 95 2% - - 97% 1 mhos 651 - None None - -
12/11/2016 00:08 Ice Warning 11.7F - - 31F 95 2% - - 97% 1 mhos 666 - None None - -
12/10/2016 23:58 Ice Warning 12.0F - - 31F 95 2% - - 97% 1 mhos 646 - None None - -
12/10/2016 23:55 Ice Warning 12.2F - - 31F 95 2% - - 97% 1 mhos 632 - None None - -
12/10/2016 23:48 Ice Warning 12.4F - - 31F 95 2% - - 97% 1 mhos 628 - None None - -
12/10/2016 23:40 Ice Warning 12.6F - - 31F 95 2% - - 97% 1 mhos 623 - None None - -
12/10/2016 23:38 Ice Warning 12.7F - - 31F 95 2% - - 97% 1 mhos 615 - None None - -
12/10/2016 23:28 Ice Warning 13.1F - - 31F 95 2% - - 97% 1 mhos 607 - None None - -
12/10/2016 23:25 Ice Warning 13.1F - - 31F 95 2% - - 97% 1 mhos 603 - None None - -
12/10/2016 23:18 Ice Warning 13.1F - - 31F 95 2% - - 97% 1 mhos 603 - None None - -
Date/Time
(MST)
Sf
Temp Chem Water Layer Surface Precipitation
Sfc Pvt Sub Frz Factor Pct Dpth DpthThk IcePct Cond Salin FI Type Intens Accum Rate
12/10/2016 23:10 Ice Warning 13.3F - - 31F 95 2% - - 97% 1 mhos 596 - None None - -
12/10/2016 23:07 Ice Warning 13.3F - - 31F 95 2% - - 97% 1 mhos 592 - None None - -
12/10/2016 22:57 Ice Warning 13.6F - - 31F 95 2% - - 97% 1 mhos 583 - None None - -
12/10/2016 22:55 Ice Warning 13.8F - - 31F 95 2% - - 97% 1 mhos 579 - None None - -
12/10/2016 22:47 Ice Warning 14.0F - - 31F 95 2% - - 97% 1 mhos 570 - None None - -
12/10/2016 22:40 Ice Warning 14.2F - - 31F 95 2% - - 97% 1 mhos 564 - None None - -
12/10/2016 22:37 Ice Warning 14.2F - - 31F 95 2% - - 97% 1 mhos 567 - None None - -
12/10/2016 22:27 Ice Warning 14.5F - - 32F 95 2% - - 97% 1 mhos 555 - None None - -
12/10/2016 22:25 Ice Warning 14.5F - - 32F 95 2% - - 97% 1 mhos 551 - None None - -
12/10/2016 22:17 Ice Warning 14.7F - - 32F 95 2% - - 98% 1 mhos 541 - None None - -
12/10/2016 22:10 Ice Warning 14.7F - - 32F 95 2% - - 97% 1 mhos 545 - None None - -
12/10/2016 22:07 Ice Warning 14.7F - - 32F 95 2% - - 98% 1 mhos 539 - None None - -
12/10/2016 21:57 Ice Warning 15.3F - - 32F 95 2% - - 98% 1 mhos 515 - None None - -
12/10/2016 21:55 Ice Warning 15.1F - - 32F 95 2% - - 98% 1 mhos 522 - None None - -
12/10/2016 21:47 Ice Warning 15.3F - - 32F 95 2% - - 98% 1 mhos 506 - None None - -
Date/Time
(MST)
Sf
Temp Chem Water Layer Surface Precipitation
Sfc Pvt Sub Frz Factor Pct Dpth DpthThk IcePct Cond Salin FI Type Intens Accum Rate
12/10/2016 21:40 Ice Warning 15.3F - - 32F 95 2% - - 98% 1 mhos 505 - None None - -
12/10/2016 21:37 Ice Warning 15.3F - - 32F 95 2% - - 98% 1 mhos 508 - None None - -
12/10/2016 21:27 Ice Warning 15.4F - - 32F 95 2% - - 98% 1 mhos 501 - None None - -
12/10/2016 21:25 Ice Warning 15.4F - - 32F 95 2% - - 98% 1 mhos 501 - None None - -
12/10/2016 21:17 Ice Warning 15.8F - - 32F 95 2% - - 98% 1 mhos 484 - None None - -
12/10/2016 21:10 Ice Warning 15.6F - - 32F 95 2% - - 98% 1 mhos 491 - None None - -
12/10/2016 21:07 Ice Warning 16.0F - - 32F 95 2% - - 98% 1 mhos 480 - None None - -
12/10/2016 20:57 Ice Warning 16.2F - - 32F 95 2% - - 98% 1 mhos 476 - None None - -
12/10/2016 20:55 Ice Warning 16.3F - - 32F 95 2% - - 98% 1 mhos 466 - None None - -
12/10/2016 20:47 Ice Warning 16.5F - - 32F 95 2% - - 98% 1 mhos 453 - None None - -
12/10/2016 20:40 Ice Warning 16.9F - - 32F 95 1% - - 98% 1 mhos 440 - None None - -
12/10/2016 20:37 Ice Warning 16.9F - - 32F 95 1% - - 98% 1 mhos 429 - None None - -
12/10/2016 20:27 Ice Warning 17.2F - - 32F 95 1% - - 98% 1 mhos 416 - None None - -
12/10/2016 20:25 Ice Warning 17.4F - - 32F 95 1% - - 98% 1 mhos 411 - None None - -
12/10/2016 20:17 Ice Warning 17.6F - - 32F 95 1% - - 98% 1 mhos 403 - None None - -
Date/Time
(MST)
Sf
Temp Chem Water Layer Surface Precipitation
Sfc Pvt Sub Frz Factor Pct Dpth DpthThk IcePct Cond Salin FI Type Intens Accum Rate
12/10/2016 20:10 Ice Warning 17.8F - - 32F 95 1% - - 98% 1 mhos 399 - None None - -
12/10/2016 20:07 Ice Warning 17.8F - - 32F 95 1% - - 98% 1 mhos 399 - None None - -
12/10/2016 19:57 Ice Warning 18.3F - - 32F 95 1% - - 98% 1 mhos 402 - None None - -
12/10/2016 19:55 Ice Warning 18.3F - - 32F 95 1% - - 98% 1 mhos 402 - None None - -
12/10/2016 19:46 Ice Warning 18.7F - - 32F 95 1% - - 98% 1 mhos 387 - None None - -
12/10/2016 19:40 Ice Warning 19.0F - - 32F 95 1% - - 98% 1 mhos 375 - None None - -
12/10/2016 19:36 Ice Warning 19.2F - - 32F 95 1% - - 98% 1 mhos 370 - None None - -
12/10/2016 19:26 Ice Warning 19.6F - - 32F 95 1% - - 98% 1 mhos 350 - None None - -
12/10/2016 19:25 Ice Warning 19.6F - - 32F 95 1% - - 98% 1 mhos 351 - None None - -
12/10/2016 19:16 Ice Warning 19.9F - - 32F 95 1% - - 98% 1 mhos 340 - None None - -
12/10/2016 19:10 Ice Warning 20.3F - - 32F 95 1% - - 98% 1 mhos 333 - Yes - - -
12/10/2016 19:06 Ice Warning 20.5F - - 32F 95 1% - - 98% 1 mhos 329 - None None - -
12/10/2016 18:56 Ice Warning 20.7F - - 32F 95 1% - - 98% 1 mhos 324 - None None - -
12/10/2016 18:55 Ice Warning 20.7F - - 32F 95 1% - - 98% 1 mhos 322 - None None - -
12/10/2016 18:46 Ice Warning 21.0F - - 32F 95 1% - - 98% 1 mhos 319 - Yes - - -
Date/Time
(MST)
Sf
Temp Chem Water Layer Surface Precipitation
Sfc Pvt Sub Frz Factor Pct Dpth DpthThk IcePct Cond Salin FI Type Intens Accum Rate
12/10/2016 18:40 Ice Warning 21.0F - - 32F 95 1% - - 98% 1 mhos 310 - None None - -
12/10/2016 18:36 Ice Warning 21.2F - - 32F 95 1% - - 98% 1 mhos 299 - Yes - - -
12/10/2016 18:26 Ice Warning 21.7F - - 32F 95 1% - - 98% 1 mhos 273 - None None - -
12/10/2016 18:25 Ice Warning 21.7F - - 32F 95 1% - - 98% 1 mhos 268 - None None - -
12/10/2016 18:16 Ice Warning 22.3F - - 32F 95 1% - - 98% 1 mhos 250 - None None - -
12/10/2016 18:10 Ice Warning 22.5F - - 32F 95 1% - - 98% 1 mhos 241 - None None - -
12/10/2016 18:06 Ice Warning 22.6F - - 32F 95 1% - - 98% 1 mhos 231 - None None - -
12/10/2016 17:56 Ice Warning 23.4F - - 32F 95 1% - - 98% 1 mhos 211 - None None - -
12/10/2016 17:55 Ice Warning 23.5F - - 32F 95 1% - - 98% 1 mhos 206 - None None - -
12/10/2016 17:46 Ice Warning 23.9F - - 32F 95 1% - - 99% 1 mhos 179 - None None - -
12/10/2016 17:40 Ice Warning 24.6F - - 32F 95 1% - - 99% 1 mhos 152 - None None - -
12/10/2016 17:36 Ice Warning 24.6F - - 32F 95 0% - - 99% 1 mhos 133 - None None - -
12/10/2016 17:26 Ice Warning 25.0F - - 32F 95 0% - - 99% 1 mhos 103 - None None - -
12/10/2016 17:25 Ice Warning 25.0F - - 32F 95 0% - - 99% 1 mhos 103 - None None - -
12/10/2016 17:16 Ice Warning 25.9F - - 32F 95 0% - - 99% 0 mhos 82 - Yes - - -
Date/Time
(MST)
Sf
Temp Chem Water Layer Surface Precipitation
Sfc Pvt Sub Frz Factor Pct Dpth DpthThk IcePct Cond Salin FI Type Intens Accum Rate
12/10/2016 17:10 Ice Warning 26.1F - - 32F 95 0% - - 99% 1 mhos 84 - Yes - - -
12/10/2016 17:06 Ice Warning 26.6F - - 32F 95 0% - - 99% 1 mhos 83 - Yes - - -
12/10/2016 16:56 Ice Warning 27.0F - - 32F 90 0% - - 99% 1 mhos 127 - Yes - - -
12/10/2016 16:55 Ice Warning 27.0F - - 32F 90 0% - - 99% 1 mhos 135 - Yes - - -
12/10/2016 16:46 Ice Warning 27.0F - - 32F 90 0% - - 98% 1 mhos 148 - Yes - - -
12/10/2016 16:40 Ice Warning 27.0F - - 32F 85 0% - - 98% 1 mhos 142 - Yes - - -
12/10/2016 16:35 Ice Warning 27.3F - - 32F 70 0% - - 98% 1 mhos 142 - Yes - - -
12/10/2016 16:25 Ice Warning 27.7F - - 32F 70 0% - - 98% 1 mhos 136 - None None - -
12/10/2016 16:25 Ice Warning 27.9F - - 32F 70 0% - - 98% 1 mhos 133 - None None - -
12/10/2016 16:15 Ice Warning 28.8F - - 32F 65 0% - - 98% 1 mhos 113 - None None - -
12/10/2016 16:10 Ice Warning 29.3F - - 32F 70 0% - - 98% 1 mhos 101 - None None - -
12/10/2016 16:05 Ice Warning 29.5F - - 32F 65 0% - - 98% 1 mhos 95 - None None - -
12/10/2016 15:55 Ice Warning 30.0F - - 32F 70 0% - - 98% 1 mhos 93 - None None - -
12/10/2016 15:55 Ice Warning 30.0F - - 32F 70 0% - - 98% 1 mhos 93 - None None - -
12/10/2016 15:45 Chemically Wet 31.8F - - 32F 85 0% - - 77% 1 mhos 80 - None None - -
Date/Time
(MST)
Sf
Temp Chem Water Layer Surface Precipitation
Sfc Pvt Sub Frz Factor Pct Dpth DpthThk IcePct Cond Salin FI Type Intens Accum Rate
12/10/2016 15:40 Ice Warning 31.5F - - 32F 85 0% - - 94% 1 mhos 82 - None None - -
12/10/2016 15:35 Ice Warning 31.5F - - 32F 75 0% - - 93% 1 mhos 78 - None None - -
12/10/2016 15:25 Wet 32.9F - - 32F 60 0% 0.00 in - 0% 1 mhos 68 - None None - -
12/10/2016 15:25 Wet 32.9F - - 32F 60 0% 0.00 in - 0% 1 mhos 68 - None None - -
12/10/2016 15:15 Ice Warning 31.5F - - 32F 60 0% - - 95% 1 mhos 60 - None None - -
12/10/2016 15:10 Ice Warning 31.5F - - 32F 50 0% - - 96% 1 mhos 54 - None None - -
12/10/2016 15:05 Ice Warning 31.5F - - 32F 35 0% - - 96% 0 mhos 48 - None None - -
12/10/2016 14:55 Wet 32.7F - - 32F 15 0% 0.00 in - 0% 0 mhos 41 - None None - -
12/10/2016 14:55 Wet 32.7F - - 32F 15 0% 0.00 in - 0% 0 mhos 41 - None None - -
12/10/2016 14:45 Wet 33.1F - - 32F 5 0% 0.00 in - 0% 0 mhos 39 - None None - -
12/10/2016 14:40 Wet 33.1F - - 32F 5 0% 0.00 in - 0% 0 mhos 38 - None None - -
12/10/2016 14:35 Wet 33.4F - - 32F 5 0% 0.00 in - 0% 0 mhos 39 - None None - -
12/10/2016 14:25 Wet 33.3F - - 32F 5 0% 0.00 in - 0% 0 mhos 39 - None None - -
12/10/2016 14:25 Wet 33.3F - - 32F 5 0% 0.00 in - 0% 0 mhos 39 - None None - -
12/10/2016 14:15 Wet 33.3F - - 32F 10 0% 0.00 in - 0% 0 mhos 40 - None None - -
Date/Time
(MST)
Sf
Temp Chem Water Layer Surface Precipitation
Sfc Pvt Sub Frz Factor Pct Dpth DpthThk IcePct Cond Salin FI Type Intens Accum Rate
12/10/2016 14:10 Wet 32.7F - - 32F 10 0% 0.00 in - 0% 0 mhos 41 - None None - -
12/10/2016 14:05 Wet 32.9F - - 32F 5 0% 0.00 in - 0% 0 mhos 41 - None None - -
12/10/2016 13:55 Wet 33.4F - - 32F 5 0% 0.00 in - 0% 0 mhos 44 - None None - -
12/10/2016 13:55 Wet 33.4F - - 32F 5 0% 0.00 in - 0% 0 mhos 44 - None None - -
12/10/2016 13:45 Wet 33.8F - - 32F 5 0% 0.00 in - 0% 0 mhos 46 - None None - -
12/10/2016 13:40 Wet 34.3F - - 32F 5 0% 0.00 in - 0% 1 mhos 50 - None None - -
12/10/2016 13:35 Wet 34.2F - - 32F 5 0% 0.00 in - 0% 1 mhos 54 - None None - -
12/10/2016 13:25 Wet 34.2F - - 32F 10 0% 0.00 in - 0% 1 mhos 62 - None None - -
12/10/2016 13:25 Wet 34.2F - - 32F 10 0% 0.00 in - 0% 1 mhos 62 - None None - -
12/10/2016 13:14 Wet 34.3F - - 32F 10 0% 0.00 in - 0% 1 mhos 73 - None None - -
12/10/2016 13:10 Wet 34.3F - - 32F 35 0% 0.00 in - 0% 1 mhos 78 - None None - -
12/10/2016 13:04 Wet 34.7F - - 32F 80 0% 0.00 in - 0% 1 mhos 83 - None None - -
12/10/2016 12:55 Wet 34.2F - - 32F 95 0% 0.00 in - 0% 1 mhos 91 - None None - -
12/10/2016 12:54 Wet 34.2F - - 32F 95 0% 0.00 in - 0% 1 mhos 91 - None None - -
12/10/2016 12:44 Wet 34.3F - - 32F 95 0% 0.00 in - 0% 1 mhos 98 - None None - -
Date/Time
(MST)
Sf
Temp Chem Water Layer Surface Precipitation
Sfc Pvt Sub Frz Factor Pct Dpth DpthThk IcePct Cond Salin FI Type Intens Accum Rate
12/10/2016 12:40 Wet 34.9F - - 32F 95 0% 0.00 in - 0% 1 mhos 99 - None None - -
12/10/2016 12:34 Wet 35.1F - - 32F 95 0% 0.00 in - 0% 1 mhos 101 - None None - -
12/10/2016 12:25 Wet 35.2F - - 32F 95 0% 0.00 in - 0% 1 mhos 104 - None None - -
12/10/2016 12:24 Wet 35.2F - - 32F 95 0% 0.00 in - 0% 1 mhos 104 - None None - -
12/10/2016 12:14 Wet 32.9F - - 32F 95 0% 0.00 in - 0% 1 mhos 106 - None None - -
12/10/2016 12:10 Wet 32.5F - - 32F 95 0% 0.00 in - 0% 1 mhos 102 - None None - -
12/10/2016 12:04 Wet 33.1F - - 32F 95 0% 0.00 in - 0% 1 mhos 100 - None None - -
12/10/2016 11:55 Wet 32.5F - - 32F 95 0% 0.00 in - 0% 1 mhos 99 - None None - -
12/10/2016 11:54 Wet 32.7F - - 32F 95 0% 0.00 in - 0% 1 mhos 99 - None None - -
12/10/2016 11:44 Chemically Wet 31.8F - - 32F 95 0% - - 73% 1 mhos 97 - None None - -
12/10/2016 11:40 Wet 32.4F - - 32F 95 0% 0.00 in - 0% 1 mhos 94 - None None - -
12/10/2016 11:34 Ice Warning 31.5F - - 32F 95 0% - - 91% 1 mhos 97 - None None - -
12/10/2016 11:25 Ice Warning 31.1F - - 32F 95 0% - - 96% 1 mhos 95 - None None - -
12/10/2016 11:24 Ice Warning 31.1F - - 32F 95 0% - - 96% 1 mhos 94 - None None - -
12/10/2016 11:14 Ice Warning 31.1F - - 32F 95 0% - - 95% 1 mhos 98 - None None - -
Date/Time
(MST)
Sf
Temp Chem Water Layer Surface Precipitation
Sfc Pvt Sub Frz Factor Pct Dpth DpthThk IcePct Cond Salin FI Type Intens Accum Rate
12/10/2016 11:10 Ice Warning 30.6F - - 32F 95 0% - - 97% 1 mhos 106 - None None - -
12/10/2016 11:04 Ice Warning 31.3F - - 32F 95 0% - - 94% 1 mhos 110 - None None - -
12/10/2016 10:55 Ice Warning 30.4F - - 32F 95 0% - - 97% 1 mhos 119 - None None - -
12/10/2016 10:54 Ice Warning 30.2F - - 32F 95 0% - - 97% 1 mhos 120 - None None - -
12/10/2016 10:44 Ice Warning 29.7F - - 32F 95 0% - - 97% 1 mhos 144 - None None - -
12/10/2016 10:40 Ice Warning 29.3F - - 32F 95 1% - - 97% 1 mhos 180 - None None - -
12/10/2016 10:34 Ice Warning 29.3F - - 32F 95 1% - - 96% 2 mhos 236 - None None - -
12/10/2016 10:25 Ice Warning 29.1F - - 32F 95 2% - - 91% 4 mhos 552 - None None - -
12/10/2016 10:24 Ice Warning 28.9F - - 31F 95 2% - - 90% 5 mhos 596 - None None - -
12/10/2016 10:14 Ice Warning 28.0F - - 31F 95 3% - - 86% 8 mhos 1038 - None None - -
12/10/2016 10:10 Chemically Wet 28.0F - - 31F 95 4% - - 84% 9 mhos 1200 - None None - -
12/10/2016 10:03 Chemically Wet 27.7F - - 31F 95 5% - - 80% 12 mhos 1588 - Yes - - -
12/10/2016 09:55 Chemically Wet 27.1F - - 30F 95 6% - - 79% 13 mhos 1874 - None None - -
12/10/2016 09:53 Chemically Wet 27.1F - - 30F 95 7% - - 74% 16 mhos 2234 - None None - -
12/10/2016 09:43 Chemically Wet 26.6F - - 28F 95 12% - - 63% 25 mhos 3506 - None None - -
Date/Time
(MST)
Sf
Temp Chem Water Layer Surface Precipitation
Sfc Pvt Sub Frz Factor Pct Dpth DpthThk IcePct Cond Salin FI Type Intens Accum Rate
12/10/2016 09:40 Chemically Wet 26.8F - - 29F 95 10% - - 68% 22 mhos 3016 - None None - -
12/10/2016 09:33 Chemically Wet 26.4F - - 30F 95 8% - - 76% 16 mhos 2307 - None None - -
12/10/2016 09:25 Ice Warning 25.9F - - 32F 95 2% - - 96% 3 mhos 472 - Yes - - -
12/10/2016 09:23 Ice Warning 25.9F - - 32F 95 1% - - 96% 2 mhos 396 - Yes - - -
12/10/2016 09:13 Ice Warning 25.2F - - 32F 95 1% - - 96% 3 mhos 440 - None None - -
12/10/2016 09:10 Ice Warning 25.0F - - 32F 95 2% - - 96% 3 mhos 502 - None None - -
12/10/2016 09:03 Ice Warning 25.0F - - 32F 95 2% - - 96% 3 mhos 471 - None None - -
12/10/2016 08:55 Ice Warning 24.4F - - 32F 95 1% - - 97% 2 mhos 419 - None None - -
12/10/2016 08:53 Ice Warning 24.6F - - 32F 95 1% - - 96% 2 mhos 428 - None None - -
12/10/2016 08:43 Ice Warning 24.3F - - 32F 95 1% - - 98% 2 mhos 310 - None None - -
12/10/2016 08:40 Ice Warning 24.3F - - 32F 95 1% - - 98% 2 mhos 312 - Yes - - -
12/10/2016 08:33 Ice Warning 24.1F - - 32F 95 1% - - 98% 1 mhos 285 - None None - -
12/10/2016 08:25 Ice Warning 24.1F - - 32F 95 1% - - 97% 2 mhos 319 - Yes - - -
12/10/2016 08:23 Ice Warning 23.9F - - 32F 95 1% - - 97% 2 mhos 345 - None None - -
12/10/2016 08:13 Ice Warning 23.7F - - 32F 95 2% - - 96% 3 mhos 494 - Yes - - -
Date/Time
(MST)
Sf
Temp Chem Water Layer Surface Precipitation
Sfc Pvt Sub Frz Factor Pct Dpth DpthThk IcePct Cond Salin FI Type Intens Accum Rate
12/10/2016 08:10 Ice Warning 23.5F - - 32F 95 2% - - 96% 3 mhos 509 - None None - -
12/10/2016 08:03 Ice Warning 23.4F - - 31F 95 2% - - 95% 3 mhos 703 - None None - -
12/10/2016 07:55 Ice Warning 23.4F - - 31F 95 3% - - 93% 4 mhos 884 - None None - -
12/10/2016 07:53 Ice Warning 23.4F - - 31F 95 4% - - 92% 5 mhos 1072 - None None - -
12/10/2016 07:43 Ice Warning 23.4F - - 31F 95 2% - - 96% 3 mhos 575 - None None - -
12/10/2016 07:40 Ice Warning 23.5F - - 31F 95 3% - - 94% 4 mhos 756 - Yes - - -
12/10/2016 07:33 Ice Warning 23.5F - - 31F 95 3% - - 93% 5 mhos 942 - None None - -
12/10/2016 07:25 Chemically Wet 23.4F - - 30F 95 7% - - 85% 11 mhos 2032 - Yes - - -
12/10/2016 07:23 Chemically Wet 23.5F - - 29F 95 9% - - 80% 14 mhos 2615 - Yes - - -
12/10/2016 07:13 Chemically Wet 23.5F - - 29F 95 9% - - 79% 15 mhos 2827 - Yes - - -
12/10/2016 07:10 Chemically Wet 23.5F - - 29F 95 10% - - 78% 16 mhos 2970 - Yes - - -
12/10/2016 07:03 Chemically Wet 23.5F - - 29F 95 10% - - 77% 17 mhos 3050 - None None - -
12/10/2016 06:55 Chemically Wet 23.5F - - 28F 95 12% - - 73% 20 mhos 3579 - Yes - - -
12/10/2016 06:53 Chemically Wet 23.5F - - 28F 95 12% - - 73% 20 mhos 3594 - None None - -
Change End Date:

Copyright © 1998-2015 Vaisala, Inc.
All Rights Reserved
Send comments about the data to:
SCAN Web ® is a registered trademark of Vaisala, Inc.
SCAN Web Version 6.0